createdAt,value
2023-05-05T00:01:09.084Z,57.42
2023-05-05T00:03:35.876Z,56.90
2023-05-05T00:06:02.882Z,56.93
2023-05-05T00:08:29.570Z,57.89
2023-05-05T00:10:57.523Z,57.19
2023-05-05T00:13:24.460Z,57.55
2023-05-05T00:15:53.469Z,59.26
2023-05-05T00:18:21.177Z,60.84
2023-05-05T00:20:48.403Z,62.30
2023-05-05T00:23:16.015Z,61.64
2023-05-05T00:25:43.009Z,61.37
2023-05-05T00:28:09.691Z,61.36
2023-05-05T00:30:37.430Z,64.22
2023-05-05T00:33:04.278Z,63.83
2023-05-05T00:35:30.844Z,65.07
2023-05-05T00:37:57.376Z,63.06
2023-05-05T00:40:25.128Z,63.13
2023-05-05T00:42:52.177Z,65.34
2023-05-05T00:45:20.022Z,63.79
2023-05-05T00:47:49.339Z,65.23
2023-05-05T00:50:30.553Z,66.27
2023-05-05T00:53:06.399Z,65.13
2023-05-05T00:55:34.372Z,68.60
2023-05-05T00:58:02.697Z,68.89
2023-05-05T01:00:30.139Z,70.21
2023-05-05T01:02:57.125Z,68.85
2023-05-05T01:05:26.957Z,70.48
2023-05-05T01:07:59.194Z,68.00
2023-05-05T01:10:36.433Z,69.56
2023-05-05T01:13:11.778Z,71.61
2023-05-05T01:15:48.249Z,71.60
2023-05-05T01:18:35.029Z,73.44
2023-05-05T01:21:27.479Z,71.79
2023-05-05T01:24:26.065Z,72.87
2023-05-05T01:27:34.160Z,73.18
2023-05-05T01:30:19.600Z,72.25
2023-05-05T01:32:55.394Z,72.49
2023-05-05T01:35:53.435Z,73.05
2023-05-05T01:38:26.186Z,73.49
2023-05-05T01:41:01.816Z,71.93
2023-05-05T01:43:31.158Z,71.86
2023-05-05T01:46:00.574Z,71.65
2023-05-05T01:48:27.528Z,72.22
2023-05-05T01:50:54.236Z,71.42
2023-05-05T01:53:24.050Z,72.55
2023-05-05T01:55:51.398Z,71.18
2023-05-05T01:58:18.860Z,73.82
2023-05-05T02:00:47.045Z,72.27
2023-05-05T02:03:15.745Z,73.45
2023-05-05T02:05:43.916Z,72.46
2023-05-05T02:08:11.614Z,73.70
2023-05-05T02:10:42.835Z,74.48
2023-05-05T02:13:12.708Z,74.14
2023-05-05T02:15:40.507Z,72.66
2023-05-05T02:18:07.649Z,73.02
2023-05-05T02:20:37.304Z,74.09
2023-05-05T02:23:05.782Z,75.09
2023-05-05T02:25:44.418Z,74.35
2023-05-05T02:28:20.359Z,74.72
2023-05-05T02:30:57.619Z,74.64
2023-05-05T02:33:26.178Z,73.93
2023-05-05T02:35:56.617Z,73.15
2023-05-05T02:38:28.825Z,73.38
2023-05-05T02:40:58.335Z,74.47
2023-05-05T02:43:26.932Z,73.56
2023-05-05T02:45:53.499Z,73.48
2023-05-05T02:48:20.252Z,73.77
2023-05-05T02:50:46.763Z,72.98
2023-05-05T02:53:13.726Z,73.65
2023-05-05T02:55:52.477Z,74.17
2023-05-05T02:58:29.150Z,73.38
2023-05-05T03:01:07.321Z,72.40
2023-05-05T03:04:03.212Z,74.33
2023-05-05T03:06:33.076Z,73.08
2023-05-05T03:09:08.754Z,73.26
2023-05-05T03:11:47.805Z,74.73
2023-05-05T03:14:18.376Z,74.61
2023-05-05T03:16:46.404Z,72.80
2023-05-05T03:19:17.088Z,73.45
2023-05-05T03:21:44.149Z,73.44
2023-05-05T03:24:18.032Z,73.55
2023-05-05T03:26:45.906Z,74.35
2023-05-05T03:29:13.316Z,73.46
2023-05-05T03:31:40.098Z,73.82
2023-05-05T03:34:07.288Z,75.03
2023-05-05T03:36:35.286Z,74.46
2023-05-05T03:39:01.860Z,74.29
2023-05-05T03:41:28.428Z,74.62
2023-05-05T03:43:55.099Z,74.60
2023-05-05T03:46:21.710Z,74.33
2023-05-05T03:48:48.749Z,74.22
2023-05-05T03:51:15.701Z,73.41
2023-05-05T03:53:42.280Z,74.54
2023-05-05T03:56:09.179Z,74.02
2023-05-05T03:58:35.781Z,74.66
2023-05-05T04:01:02.309Z,73.43
2023-05-05T04:03:28.886Z,73.87
2023-05-05T04:05:55.947Z,74.78
2023-05-05T04:08:22.502Z,73.54
2023-05-05T04:10:48.987Z,74.71
2023-05-05T04:13:15.643Z,74.81
2023-05-05T04:15:48.058Z,74.98
2023-05-05T04:18:14.642Z,74.83
2023-05-05T04:20:41.194Z,74.66
2023-05-05T04:23:07.709Z,73.96
2023-05-05T04:25:34.171Z,73.87
2023-05-05T04:28:00.896Z,72.94
2023-05-05T04:30:27.476Z,73.00
2023-05-05T04:32:54.054Z,73.00
2023-05-05T04:35:20.633Z,72.26
2023-05-05T04:37:47.176Z,72.32
2023-05-05T04:40:13.803Z,72.21
2023-05-05T04:42:40.424Z,71.91
2023-05-05T04:45:08.474Z,71.70
2023-05-05T04:47:39.546Z,71.95
2023-05-05T04:50:07.506Z,72.36
2023-05-05T04:52:34.310Z,71.44
2023-05-05T04:55:01.250Z,71.36
2023-05-05T04:57:27.991Z,71.92
2023-05-05T04:59:54.481Z,71.43
2023-05-05T05:02:21.117Z,71.47
2023-05-05T05:04:47.802Z,70.84
2023-05-05T05:07:16.836Z,70.97
2023-05-05T05:09:43.310Z,70.50
2023-05-05T05:12:09.894Z,70.82
2023-05-05T05:14:39.972Z,70.00
2023-05-05T05:17:06.910Z,70.03
2023-05-05T05:19:33.603Z,70.02
2023-05-05T05:22:00.170Z,69.68
2023-05-05T05:24:26.630Z,68.88
2023-05-05T05:26:53.095Z,68.70
2023-05-05T05:29:20.382Z,67.86
2023-05-05T05:31:46.926Z,68.22
2023-05-05T05:34:13.523Z,67.70
2023-05-05T05:36:39.976Z,67.04
2023-05-05T05:39:06.542Z,66.67
2023-05-05T05:41:33.125Z,66.12
2023-05-05T05:43:59.631Z,65.78
2023-05-05T05:46:26.142Z,64.79
2023-05-05T05:48:52.729Z,64.64
2023-05-05T05:51:19.279Z,64.41
2023-05-05T05:53:45.935Z,64.54
2023-05-05T05:56:12.375Z,63.92
2023-05-05T05:58:39.059Z,64.05
2023-05-05T06:01:05.557Z,64.31
2023-05-05T06:03:32.100Z,64.58
2023-05-05T06:05:59.237Z,64.39
2023-05-05T06:08:26.827Z,64.29
2023-05-05T06:10:53.331Z,63.85
2023-05-05T06:13:19.829Z,63.13
2023-05-05T06:15:46.452Z,62.80
2023-05-05T06:18:13.183Z,63.30
2023-05-05T06:20:40.009Z,62.89
2023-05-05T06:23:06.887Z,63.17
2023-05-05T06:25:33.380Z,62.84
2023-05-05T06:28:00.183Z,62.19
2023-05-05T06:30:26.809Z,61.78
2023-05-05T06:32:54.396Z,62.09
2023-05-05T06:35:22.084Z,61.03
2023-05-05T06:37:48.590Z,60.96
2023-05-05T06:40:15.326Z,59.92
2023-05-05T06:42:41.868Z,60.10
2023-05-05T06:45:08.952Z,60.11
2023-05-05T06:47:36.063Z,59.52
2023-05-05T06:50:02.602Z,58.47
2023-05-05T06:52:29.258Z,58.12
2023-05-05T06:54:55.908Z,57.35
2023-05-05T06:57:22.486Z,56.74
2023-05-05T06:59:48.988Z,56.94
2023-05-05T07:02:15.490Z,56.52
2023-05-05T07:04:43.581Z,55.74
2023-05-05T07:07:10.029Z,54.54
2023-05-05T07:09:36.576Z,53.24
2023-05-05T07:12:03.660Z,51.12
2023-05-05T07:14:30.684Z,50.66
2023-05-05T07:16:57.282Z,51.13
2023-05-05T07:19:23.839Z,50.42
2023-05-05T07:21:50.446Z,51.14
2023-05-05T07:24:17.002Z,52.56
2023-05-05T07:26:43.594Z,52.75
2023-05-05T07:29:10.100Z,53.65
2023-05-05T07:31:36.626Z,53.32
2023-05-05T07:34:03.174Z,53.21
2023-05-05T07:36:30.302Z,53.16
2023-05-05T07:38:56.795Z,53.88
2023-05-05T07:41:23.350Z,54.26
2023-05-05T07:43:49.828Z,53.88
2023-05-05T07:46:16.450Z,54.43
2023-05-05T07:48:43.086Z,53.55
2023-05-05T07:51:09.774Z,52.61
2023-05-05T07:53:36.961Z,53.21
2023-05-05T07:56:03.763Z,53.96
2023-05-05T07:58:30.339Z,53.77
2023-05-05T08:00:56.820Z,54.18
2023-05-05T08:03:24.895Z,53.68
2023-05-05T08:05:56.431Z,52.87
2023-05-05T08:08:24.941Z,53.21
2023-05-05T08:10:52.991Z,53.27
2023-05-05T08:13:19.749Z,53.51
2023-05-05T08:15:46.442Z,53.75
2023-05-05T08:18:14.348Z,53.84
2023-05-05T08:20:41.040Z,53.45
2023-05-05T08:23:07.569Z,53.54
2023-05-05T08:25:34.183Z,53.78
2023-05-05T08:28:00.897Z,53.65
2023-05-05T08:30:27.696Z,53.04
2023-05-05T08:32:54.239Z,53.51
2023-05-05T08:35:20.997Z,53.33
2023-05-05T08:37:47.489Z,53.64
2023-05-05T08:40:14.698Z,53.02
2023-05-05T08:42:42.098Z,52.49
2023-05-05T08:45:10.173Z,51.41
2023-05-05T08:47:38.788Z,52.20
2023-05-05T08:50:06.167Z,52.04
2023-05-05T08:52:39.737Z,52.07
2023-05-05T08:55:14.472Z,51.20
2023-05-05T08:57:57.913Z,50.54
2023-05-05T09:00:27.235Z,50.72
2023-05-05T09:02:56.900Z,50.53
2023-05-05T09:05:23.910Z,50.93
2023-05-05T09:07:50.683Z,50.93
2023-05-05T09:10:17.856Z,50.37
2023-05-05T09:12:44.736Z,50.49
2023-05-05T09:15:13.112Z,50.19
2023-05-05T09:17:40.558Z,50.60
2023-05-05T09:20:08.960Z,50.28
2023-05-05T09:22:43.676Z,50.35
2023-05-05T09:25:12.192Z,50.48
2023-05-05T09:27:41.406Z,50.68
2023-05-05T09:30:10.134Z,49.93
2023-05-05T09:32:50.258Z,49.67
2023-05-05T09:35:18.358Z,48.55
2023-05-05T09:37:45.206Z,49.27
2023-05-05T09:40:14.890Z,49.14
2023-05-05T09:42:41.853Z,48.44
2023-05-05T09:45:17.347Z,47.27
2023-05-05T09:47:47.756Z,48.45
2023-05-05T09:50:18.558Z,48.73
2023-05-05T09:52:56.150Z,47.40
2023-05-05T09:55:24.060Z,46.07
2023-05-05T09:57:50.594Z,47.11
2023-05-05T10:00:17.681Z,46.48
2023-05-05T10:02:44.292Z,46.55
2023-05-05T10:05:13.047Z,46.68
2023-05-05T10:07:42.991Z,46.42
2023-05-05T10:10:12.339Z,45.62
2023-05-05T10:12:39.917Z,45.76
2023-05-05T10:15:09.511Z,46.15
2023-05-05T10:17:38.668Z,46.08
2023-05-05T10:20:10.053Z,46.46
2023-05-05T10:22:38.811Z,46.96
2023-05-05T10:25:15.964Z,47.28
2023-05-05T10:27:45.962Z,46.36
2023-05-05T10:30:30.421Z,45.29
2023-05-05T10:33:31.063Z,45.96
2023-05-05T10:36:01.944Z,45.95
2023-05-05T10:38:30.992Z,45.90
2023-05-05T10:40:59.616Z,47.24
2023-05-05T10:43:27.734Z,47.23
2023-05-05T10:45:55.633Z,47.10
2023-05-05T10:48:48.469Z,47.04
2023-05-05T10:51:31.040Z,48.11
2023-05-05T10:54:26.483Z,47.58
2023-05-05T10:56:53.362Z,47.92
2023-05-05T10:59:38.378Z,48.56
2023-05-05T11:02:21.664Z,47.32
2023-05-05T11:05:06.970Z,47.68
2023-05-05T11:07:34.558Z,47.46
2023-05-05T11:10:03.572Z,47.18
2023-05-05T11:12:32.178Z,46.64
2023-05-05T11:15:37.999Z,47.72
2023-05-05T11:18:07.980Z,47.34
2023-05-05T11:20:39.505Z,47.24
2023-05-05T11:23:06.306Z,46.86
2023-05-05T11:25:36.458Z,46.03
2023-05-05T11:28:19.635Z,46.09
2023-05-05T11:30:55.328Z,46.28
2023-05-05T11:33:29.191Z,46.57
2023-05-05T11:35:59.675Z,46.35
2023-05-05T11:38:44.309Z,46.11
2023-05-05T11:41:14.258Z,46.24
2023-05-05T11:43:41.778Z,46.84
2023-05-05T11:46:14.302Z,45.80
2023-05-05T11:48:52.819Z,44.90
2023-05-05T11:51:19.538Z,44.90
2023-05-05T11:53:47.786Z,45.03
2023-05-05T11:56:19.212Z,45.63
2023-05-05T11:58:46.799Z,45.57
2023-05-05T12:01:13.608Z,46.68
2023-05-05T12:03:40.727Z,46.13
2023-05-05T12:06:08.237Z,45.88
2023-05-05T12:08:39.382Z,45.88
2023-05-05T12:11:09.324Z,45.52
2023-05-05T12:13:35.870Z,45.18
2023-05-05T12:16:13.178Z,45.37
2023-05-05T12:18:40.894Z,45.16
2023-05-05T12:21:20.852Z,45.36
2023-05-05T12:23:47.545Z,45.32
2023-05-05T12:26:30.075Z,43.89
2023-05-05T12:29:00.383Z,46.14
2023-05-05T12:31:41.518Z,46.23
2023-05-05T12:34:11.980Z,45.35
2023-05-05T12:36:39.834Z,44.53
2023-05-05T12:39:06.411Z,44.37
2023-05-05T12:41:34.260Z,44.27
2023-05-05T12:44:03.123Z,44.41
2023-05-05T12:46:31.069Z,44.89
2023-05-05T12:49:04.890Z,45.32
2023-05-05T12:51:32.898Z,45.03
2023-05-05T12:54:10.322Z,44.27
2023-05-05T12:56:36.866Z,44.55
2023-05-05T12:59:11.042Z,45.08
2023-05-05T13:01:49.041Z,44.63
2023-05-05T13:04:16.031Z,44.22
2023-05-05T13:06:47.932Z,44.18
2023-05-05T13:09:35.628Z,44.11
2023-05-05T13:12:05.608Z,44.74
2023-05-05T13:17:07.512Z,45.91
2023-05-05T13:19:35.744Z,45.18
2023-05-05T13:22:02.329Z,45.43
2023-05-05T13:24:42.330Z,45.20
2023-05-05T13:27:13.850Z,46.28
2023-05-05T13:29:41.697Z,46.23
2023-05-05T13:32:08.284Z,45.80
2023-05-05T13:34:34.912Z,46.32
2023-05-05T13:37:01.373Z,46.05
2023-05-05T13:39:27.923Z,45.93
2023-05-05T13:41:54.421Z,46.01
2023-05-05T13:44:21.026Z,46.91
2023-05-05T13:46:47.935Z,46.13
2023-05-05T13:49:14.631Z,46.35
2023-05-05T13:51:41.184Z,45.96
2023-05-05T13:54:07.784Z,45.94
2023-05-05T13:56:34.755Z,46.46
2023-05-05T13:59:02.389Z,46.06
2023-05-05T14:01:29.688Z,45.33
2023-05-05T14:03:57.573Z,45.87
2023-05-05T14:06:24.479Z,45.99
2023-05-05T14:08:51.701Z,45.96
2023-05-05T14:11:18.302Z,45.68
2023-05-05T14:13:46.489Z,45.68
2023-05-05T14:16:13.653Z,45.34
2023-05-05T14:18:40.384Z,45.48
2023-05-05T14:21:07.025Z,45.57
2023-05-05T14:23:33.592Z,46.10
2023-05-05T14:26:00.510Z,45.70
2023-05-05T14:28:27.050Z,45.71
2023-05-05T14:30:53.742Z,46.19
2023-05-05T14:33:20.309Z,46.01
2023-05-05T14:35:46.922Z,45.77
2023-05-05T14:38:13.421Z,45.39
2023-05-05T14:40:39.926Z,45.93
2023-05-05T14:43:06.631Z,46.28
2023-05-05T14:45:33.631Z,47.29
2023-05-05T14:48:00.256Z,46.81
2023-05-05T14:50:26.827Z,46.86
2023-05-05T14:52:53.344Z,47.12
2023-05-05T14:55:19.905Z,48.10
2023-05-05T14:57:46.410Z,48.41
2023-05-05T15:00:13.454Z,48.35
2023-05-05T15:02:40.161Z,48.69
2023-05-05T15:05:07.758Z,47.79
2023-05-05T15:07:34.522Z,48.13
2023-05-05T15:10:01.547Z,47.76
2023-05-05T15:12:28.066Z,47.40
2023-05-05T15:14:55.443Z,47.89
2023-05-05T15:17:22.147Z,48.05
2023-05-05T15:19:48.824Z,49.25
2023-05-05T15:22:15.620Z,49.22
2023-05-05T15:24:42.198Z,48.09
2023-05-05T15:27:08.866Z,47.92
2023-05-05T15:29:35.372Z,48.24
2023-05-05T15:32:01.934Z,48.29
2023-05-05T15:34:28.509Z,48.06
2023-05-05T15:36:55.093Z,47.87
2023-05-05T15:39:21.692Z,48.35
2023-05-05T15:41:48.338Z,48.55
2023-05-05T15:44:15.047Z,49.10
2023-05-05T15:46:41.645Z,48.81
2023-05-05T15:49:08.303Z,48.54
2023-05-05T15:51:35.411Z,48.60
2023-05-05T15:54:02.013Z,48.47
2023-05-05T15:56:29.277Z,49.13
2023-05-05T15:58:56.741Z,49.67
2023-05-05T16:01:23.434Z,49.32
2023-05-05T16:03:50.182Z,49.21
2023-05-05T16:06:16.760Z,49.23
2023-05-05T16:08:43.418Z,49.29
2023-05-05T16:11:11.528Z,48.54
2023-05-05T16:13:39.134Z,49.36
2023-05-05T16:16:06.821Z,48.83
2023-05-05T16:18:33.562Z,49.00
2023-05-05T16:21:00.188Z,48.97
2023-05-05T16:23:26.990Z,48.75
2023-05-05T16:25:53.574Z,48.88
2023-05-05T16:28:20.134Z,48.80
2023-05-05T16:30:46.694Z,48.89
2023-05-05T16:33:13.214Z,49.05
2023-05-05T16:35:39.777Z,49.33
2023-05-05T16:38:06.364Z,49.32
2023-05-05T16:40:32.983Z,49.75
2023-05-05T16:42:59.470Z,49.65
2023-05-05T16:45:25.987Z,49.21
2023-05-05T16:47:52.540Z,49.67
2023-05-05T16:50:19.237Z,49.48
2023-05-05T16:52:46.009Z,49.19
2023-05-05T16:55:12.652Z,49.72
2023-05-05T16:57:39.173Z,49.34
2023-05-05T17:00:07.311Z,49.54
2023-05-05T17:02:35.302Z,49.69
2023-05-05T17:05:02.588Z,49.65
2023-05-05T17:07:29.265Z,49.68
2023-05-05T17:09:55.769Z,49.38
2023-05-05T17:12:22.354Z,50.04
2023-05-05T17:14:49.190Z,49.99
2023-05-05T17:17:15.672Z,50.03
2023-05-05T17:19:42.756Z,49.93
2023-05-05T17:22:09.456Z,49.87
2023-05-05T17:24:36.453Z,49.73
2023-05-05T17:27:03.301Z,49.96
2023-05-05T17:29:29.893Z,50.07
2023-05-05T17:31:56.809Z,50.27
2023-05-05T17:34:23.334Z,49.74
2023-05-05T17:36:49.870Z,50.48
2023-05-05T17:39:16.933Z,50.77
2023-05-05T17:41:43.500Z,50.87
2023-05-05T17:44:10.098Z,51.12
2023-05-05T17:46:37.435Z,51.16
2023-05-05T17:49:04.016Z,51.22
2023-05-05T17:51:31.446Z,52.03
2023-05-05T17:53:58.393Z,52.86
2023-05-05T17:56:24.972Z,52.96
2023-05-05T17:58:51.970Z,53.55
2023-05-05T18:01:26.720Z,53.31
2023-05-05T18:03:53.711Z,53.08
2023-05-05T18:06:20.570Z,53.62
2023-05-05T18:08:48.081Z,54.00
2023-05-05T18:11:15.399Z,54.37
2023-05-05T18:13:43.057Z,54.13
2023-05-05T18:16:09.606Z,55.07
2023-05-05T18:18:36.523Z,55.33
2023-05-05T18:21:03.146Z,55.17
2023-05-05T18:23:29.727Z,54.93
2023-05-05T18:25:56.451Z,55.13
2023-05-05T18:28:23.482Z,55.46
2023-05-05T18:30:50.073Z,56.00
2023-05-05T18:33:16.748Z,55.95
2023-05-05T18:35:43.389Z,56.65
2023-05-05T18:38:10.078Z,56.59
2023-05-05T18:40:36.702Z,56.46
2023-05-05T18:43:03.340Z,56.75
2023-05-05T18:45:30.204Z,57.05
2023-05-05T18:47:56.806Z,56.92
2023-05-05T18:50:23.384Z,57.41
2023-05-05T18:52:49.949Z,57.61
2023-05-05T18:55:16.845Z,58.57
2023-05-05T18:57:43.435Z,57.71
2023-05-05T19:00:10.839Z,57.69
2023-05-05T19:02:37.671Z,58.31
2023-05-05T19:05:04.768Z,58.76
2023-05-05T19:07:35.054Z,58.20
2023-05-05T19:10:04.568Z,59.22
2023-05-05T19:12:31.592Z,58.81
2023-05-05T19:15:01.459Z,59.11
2023-05-05T19:17:28.001Z,58.95
2023-05-05T19:19:54.845Z,59.44
2023-05-05T19:22:23.081Z,59.61
2023-05-05T19:24:49.703Z,59.29
2023-05-05T19:27:17.118Z,59.40
2023-05-05T19:29:44.583Z,59.37
2023-05-05T19:32:11.169Z,59.73
2023-05-05T19:34:37.843Z,60.00
2023-05-05T19:37:04.691Z,59.97
2023-05-05T19:39:31.302Z,60.34
2023-05-05T19:41:57.917Z,60.33
2023-05-05T19:44:24.692Z,60.99
2023-05-05T19:46:53.079Z,59.79
2023-05-05T19:49:19.799Z,59.93
2023-05-05T19:51:49.802Z,60.12
2023-05-05T19:54:16.806Z,60.03
2023-05-05T19:56:43.478Z,60.91
2023-05-05T19:59:10.813Z,60.98
2023-05-05T20:01:39.266Z,60.93
2023-05-05T20:04:06.061Z,61.13
2023-05-05T20:06:36.644Z,60.68
2023-05-05T20:09:04.677Z,61.03
2023-05-05T20:11:31.694Z,61.88
2023-05-05T20:13:58.702Z,61.09
2023-05-05T20:16:28.003Z,62.04
2023-05-05T20:18:54.997Z,61.56
2023-05-05T20:21:21.640Z,61.42
2023-05-05T20:23:48.543Z,61.93
2023-05-05T20:26:15.337Z,61.33
2023-05-05T20:28:45.134Z,61.50
2023-05-05T20:31:14.210Z,61.99
2023-05-05T20:33:41.005Z,62.35
2023-05-05T20:36:07.805Z,62.97
2023-05-05T20:38:37.238Z,63.31
2023-05-05T20:41:03.814Z,63.10
2023-05-05T20:43:30.335Z,63.35
2023-05-05T20:45:57.055Z,63.05
2023-05-05T20:48:23.607Z,63.18
2023-05-05T20:50:51.243Z,62.76
2023-05-05T20:53:19.166Z,63.17
2023-05-05T20:55:45.972Z,63.47
2023-05-05T20:58:12.780Z,63.56
2023-05-05T21:00:39.604Z,63.92
2023-05-05T21:03:08.858Z,63.59
2023-05-05T21:05:36.170Z,63.25
2023-05-05T21:08:02.910Z,63.54
2023-05-05T21:10:29.549Z,63.73
2023-05-05T21:12:56.200Z,64.07
2023-05-05T21:15:23.137Z,64.24
2023-05-05T21:17:50.007Z,64.13
2023-05-05T21:20:18.604Z,64.57
2023-05-05T21:22:45.793Z,63.90
2023-05-05T21:25:19.325Z,65.40
2023-05-05T21:27:47.775Z,65.20
2023-05-05T21:30:15.774Z,64.97
2023-05-05T21:32:42.956Z,64.28
2023-05-05T21:35:10.214Z,64.64
2023-05-05T21:37:38.078Z,64.77
2023-05-05T21:40:06.300Z,65.08
2023-05-05T21:42:32.899Z,64.79
2023-05-05T21:44:59.496Z,65.15
2023-05-05T21:47:27.003Z,64.92
2023-05-05T21:49:53.471Z,65.73
2023-05-05T21:52:20.152Z,65.38
2023-05-05T21:54:46.743Z,64.67
2023-05-05T21:57:13.208Z,64.68
2023-05-05T21:59:39.871Z,64.86
2023-05-05T22:02:06.386Z,64.69
2023-05-05T22:04:32.913Z,64.30
2023-05-05T22:06:59.495Z,64.64
2023-05-05T22:09:25.981Z,64.19
2023-05-05T22:11:52.569Z,64.67
2023-05-05T22:14:19.090Z,64.35
2023-05-05T22:16:45.742Z,64.61
2023-05-05T22:19:12.375Z,64.56
2023-05-05T22:21:38.809Z,64.64
2023-05-05T22:24:07.232Z,65.09
2023-05-05T22:26:33.788Z,64.25
2023-05-05T22:29:00.737Z,64.64
2023-05-05T22:31:27.378Z,64.36
2023-05-05T22:33:53.856Z,65.01
2023-05-05T22:36:20.445Z,64.70
2023-05-05T22:38:46.947Z,65.68
2023-05-05T22:41:13.627Z,64.80
2023-05-05T22:43:40.110Z,65.83
2023-05-05T22:46:06.705Z,65.32
2023-05-05T22:48:33.212Z,64.37
2023-05-05T22:50:59.964Z,65.11
2023-05-05T22:53:26.584Z,65.95
2023-05-05T22:55:53.151Z,65.69
2023-05-05T22:58:20.067Z,65.82
2023-05-05T23:00:46.725Z,64.91
2023-05-05T23:03:13.397Z,65.06
2023-05-05T23:05:39.864Z,65.79
2023-05-05T23:08:06.623Z,66.22
2023-05-05T23:10:33.134Z,66.05
2023-05-05T23:12:59.662Z,65.27
2023-05-05T23:15:26.157Z,65.66
2023-05-05T23:17:52.757Z,65.93
2023-05-05T23:20:19.526Z,66.14
2023-05-05T23:22:45.996Z,65.76
2023-05-05T23:25:12.856Z,66.09
2023-05-05T23:27:42.663Z,65.71
2023-05-05T23:30:09.709Z,65.75
2023-05-05T23:32:36.329Z,65.24
2023-05-05T23:35:02.931Z,65.71
2023-05-05T23:37:29.537Z,65.96
2023-05-05T23:39:56.761Z,65.61
2023-05-05T23:42:24.068Z,65.55
2023-05-05T23:44:50.562Z,65.96
2023-05-05T23:47:17.160Z,64.78
2023-05-05T23:49:43.643Z,65.84
2023-05-05T23:52:10.905Z,65.23
2023-05-05T23:54:37.346Z,65.58
2023-05-05T23:57:03.937Z,65.53
2023-05-05T23:59:30.624Z,65.36
